createdAt,value
2023-03-19T00:01:53.775Z,98318.38
2023-03-19T00:03:55.481Z,98321.38
2023-03-19T00:06:06.308Z,98313.72
2023-03-19T00:08:07.859Z,98323.03
2023-03-19T00:10:09.808Z,98313.16
2023-03-19T00:12:12.051Z,98324.69
2023-03-19T00:14:16.661Z,98317.84
2023-03-19T00:16:18.278Z,98318.09
2023-03-19T00:18:20.284Z,98327.41
2023-03-19T00:20:22.668Z,98318.63
2023-03-19T00:22:24.659Z,98319.22
2023-03-19T00:24:26.471Z,98318.63
2023-03-19T00:26:29.077Z,98318.91
2023-03-19T00:28:33.432Z,98320.28
2023-03-19T00:30:35.216Z,98325.22
2023-03-19T00:32:37.216Z,98324.94
2023-03-19T00:34:39.054Z,98331.22
2023-03-19T00:36:40.524Z,98330.91
2023-03-19T00:38:43.366Z,98331.19
2023-03-19T00:40:44.851Z,98328.16
2023-03-19T00:42:47.516Z,98334.22
2023-03-19T00:44:49.079Z,98333.63
2023-03-19T00:46:50.669Z,98335.56
2023-03-19T00:48:55.327Z,98334.75
2023-03-19T00:51:02.736Z,98337.50
2023-03-19T00:53:04.417Z,98335.00
2023-03-19T00:55:07.959Z,98334.75
2023-03-19T00:57:09.751Z,98330.34
2023-03-19T00:59:11.241Z,98326.25
2023-03-19T01:01:15.001Z,98327.31
2023-03-19T01:03:17.615Z,98317.75
2023-03-19T01:05:21.636Z,98326.25
2023-03-19T01:07:23.592Z,98318.31
2023-03-19T01:09:25.097Z,98315.84
2023-03-19T01:11:28.684Z,98309.81
2023-03-19T01:13:30.579Z,98325.69
2023-03-19T01:15:39.148Z,98326.22
2023-03-19T01:17:42.347Z,98324.56
2023-03-19T01:19:43.791Z,98324.56
2023-03-19T01:21:46.451Z,98327.59
2023-03-19T01:23:54.179Z,98327.88
2023-03-19T01:25:57.680Z,98334.69
2023-03-19T01:28:01.958Z,98331.13
2023-03-19T01:30:04.209Z,98338.78
2023-03-19T01:32:26.713Z,98327.28
2023-03-19T01:34:48.605Z,98337.41
2023-03-19T01:36:52.509Z,98339.31
2023-03-19T01:39:04.389Z,98335.22
2023-03-19T01:41:06.885Z,98340.13
2023-03-19T01:43:19.141Z,98342.28
2023-03-19T01:45:35.951Z,98341.75
2023-03-19T01:47:57.709Z,98337.09
2023-03-19T01:50:23.494Z,98340.13
2023-03-19T01:52:34.713Z,98333.28
2023-03-19T01:54:55.032Z,98338.16
2023-03-19T01:57:22.698Z,98334.88
2023-03-19T01:59:34.699Z,98336.78
2023-03-19T02:01:50.720Z,98329.41
2023-03-19T02:03:52.946Z,98336.78
2023-03-19T02:06:03.437Z,98337.63
2023-03-19T02:08:08.851Z,98336.00
2023-03-19T02:10:14.099Z,98334.88
2023-03-19T02:12:17.561Z,98334.34
2023-03-19T02:14:19.360Z,98334.34
2023-03-19T02:16:21.250Z,98334.34
2023-03-19T02:18:27.287Z,98340.09
2023-03-19T02:20:35.773Z,98335.97
2023-03-19T02:22:42.682Z,98330.50
2023-03-19T02:25:17.185Z,98330.22
2023-03-19T02:27:23.984Z,98340.31
2023-03-19T02:29:26.515Z,98329.38
2023-03-19T02:31:30.698Z,98333.22
2023-03-19T02:33:32.536Z,98327.19
2023-03-19T02:35:38.553Z,98332.09
2023-03-19T02:37:40.445Z,98329.38
2023-03-19T02:39:47.173Z,98331.53
2023-03-19T02:41:51.725Z,98333.72
2023-03-19T02:43:54.222Z,98334.81
2023-03-19T02:45:56.223Z,98344.13
2023-03-19T02:47:57.868Z,98343.28
2023-03-19T02:50:01.286Z,98339.19
2023-03-19T02:52:02.813Z,98345.47
2023-03-19T02:54:07.311Z,98335.91
2023-03-19T02:56:08.870Z,98350.63
2023-03-19T02:58:12.688Z,98351.72
2023-03-19T03:00:17.155Z,98355.00
2023-03-19T03:02:19.068Z,98353.63
2023-03-19T03:04:24.342Z,98353.03
2023-03-19T03:06:26.054Z,98349.75
2023-03-19T03:08:28.171Z,98352.50
2023-03-19T03:10:30.701Z,98352.75
2023-03-19T03:12:32.738Z,98353.28
2023-03-19T03:14:35.153Z,98357.94
2023-03-19T03:16:37.943Z,98359.03
2023-03-19T03:18:39.513Z,98358.44
2023-03-19T03:20:41.005Z,98358.72
2023-03-19T03:22:42.854Z,98357.06
2023-03-19T03:24:44.628Z,98361.97
2023-03-19T03:26:46.164Z,98365.81
2023-03-19T03:28:50.148Z,98368.56
2023-03-19T03:30:51.739Z,98378.88
2023-03-19T03:32:59.261Z,98378.09
2023-03-19T03:35:01.045Z,98381.91
2023-03-19T03:37:02.485Z,98378.63
2023-03-19T03:39:05.621Z,98385.97
2023-03-19T03:41:12.222Z,98386.25
2023-03-19T03:43:16.564Z,98390.06
2023-03-19T03:45:19.056Z,98388.41
2023-03-19T03:47:20.599Z,98395.78
2023-03-19T03:49:22.805Z,98396.88
2023-03-19T03:51:26.912Z,98392.75
2023-03-19T03:53:28.562Z,98394.94
2023-03-19T03:55:31.776Z,98393.28
2023-03-19T03:57:33.683Z,98395.44
2023-03-19T03:59:38.180Z,98396.28
2023-03-19T04:01:39.821Z,98395.44
2023-03-19T04:03:41.513Z,98408.28
2023-03-19T04:05:44.679Z,98393.00
2023-03-19T04:07:49.606Z,98391.34
2023-03-19T04:09:54.039Z,98392.41
2023-03-19T04:11:55.749Z,98392.41
2023-03-19T04:13:57.799Z,98394.34
2023-03-19T04:16:01.078Z,98389.91
2023-03-19T04:18:03.144Z,98401.13
2023-03-19T04:20:05.031Z,98400.28
2023-03-19T04:22:08.457Z,98400.53
2023-03-19T04:24:10.545Z,98398.91
2023-03-19T04:26:12.278Z,98397.25
2023-03-19T04:28:13.803Z,98397.53
2023-03-19T04:30:16.313Z,98400.25
2023-03-19T04:32:18.319Z,98402.16
2023-03-19T04:34:20.933Z,98402.16
2023-03-19T04:36:22.437Z,98399.41
2023-03-19T04:38:28.550Z,98403.22
2023-03-19T04:40:36.169Z,98408.94
2023-03-19T04:42:38.016Z,98408.13
2023-03-19T04:44:50.765Z,98412.75
2023-03-19T04:46:52.573Z,98410.84
2023-03-19T04:48:56.153Z,98414.66
2023-03-19T04:50:58.298Z,98413.59
2023-03-19T04:53:02.838Z,98422.03
2023-03-19T04:55:07.561Z,98422.84
2023-03-19T04:57:21.245Z,98417.66
2023-03-19T04:59:23.992Z,98427.75
2023-03-19T05:01:26.185Z,98422.28
2023-03-19T05:03:34.921Z,98421.72
2023-03-19T05:05:36.355Z,98433.47
2023-03-19T05:07:42.245Z,98428.84
2023-03-19T05:09:46.334Z,98424.75
2023-03-19T05:11:49.328Z,98430.19
2023-03-19T05:13:54.460Z,98427.47
2023-03-19T05:15:56.663Z,98437.56
2023-03-19T05:17:58.887Z,98431.53
2023-03-19T05:20:11.787Z,98447.09
2023-03-19T05:22:19.876Z,98451.44
2023-03-19T05:24:21.420Z,98449.53
2023-03-19T05:26:23.551Z,98455.00
2023-03-19T05:28:43.174Z,98447.91
2023-03-19T05:30:45.688Z,98460.97
2023-03-19T05:33:00.013Z,98451.72
2023-03-19T05:35:29.513Z,98456.34
2023-03-19T05:37:31.928Z,98451.72
2023-03-19T05:39:35.131Z,98451.72
2023-03-19T05:41:40.925Z,98457.19
2023-03-19T05:43:45.732Z,98462.63
2023-03-19T05:45:59.028Z,98491.81
2023-03-19T05:48:05.655Z,98492.38
2023-03-19T05:50:13.285Z,98489.09
2023-03-19T05:52:22.412Z,98498.38
2023-03-19T05:54:24.842Z,98486.38
2023-03-19T05:57:03.465Z,98502.19
2023-03-19T05:59:08.797Z,98500.00
2023-03-19T06:01:14.907Z,98498.13
2023-03-19T06:03:16.686Z,98507.13
2023-03-19T06:05:23.753Z,98508.75
2023-03-19T06:07:28.386Z,98506.88
2023-03-19T06:09:30.394Z,98498.69
2023-03-19T06:11:32.163Z,98512.09
2023-03-19T06:13:56.827Z,98514.53
2023-03-19T06:15:58.559Z,98518.09
2023-03-19T06:18:05.933Z,98519.50
2023-03-19T06:20:07.798Z,98515.66
2023-03-19T06:22:09.882Z,98516.25
2023-03-19T06:24:11.405Z,98513.53
2023-03-19T06:26:13.319Z,98519.53
2023-03-19T06:28:23.409Z,98521.75
2023-03-19T06:30:25.592Z,98521.75
2023-03-19T06:32:28.150Z,98531.34
2023-03-19T06:34:30.812Z,98530.03
2023-03-19T06:36:32.428Z,98530.03
2023-03-19T06:38:36.845Z,98527.59
2023-03-19T06:40:38.430Z,98531.16
2023-03-19T06:42:39.955Z,98534.44
2023-03-19T06:44:43.209Z,98534.44
2023-03-19T06:46:45.121Z,98532.28
2023-03-19T06:48:46.573Z,98539.38
2023-03-19T06:50:48.299Z,98534.47
2023-03-19T06:52:50.257Z,98545.41
2023-03-19T06:54:52.006Z,98535.88
2023-03-19T06:56:55.071Z,98543.81
2023-03-19T06:58:56.522Z,98548.19
2023-03-19T07:00:58.153Z,98549.84
2023-03-19T07:02:59.956Z,98547.44
2023-03-19T07:05:07.802Z,98553.44
2023-03-19T07:07:12.258Z,98556.47
2023-03-19T07:09:13.902Z,98555.66
2023-03-19T07:11:16.612Z,98558.69
2023-03-19T07:13:18.012Z,98571.28
2023-03-19T07:15:22.720Z,98572.09
2023-03-19T07:17:25.591Z,98571.84
2023-03-19T07:19:27.179Z,98586.06
2023-03-19T07:21:29.058Z,98586.06
2023-03-19T07:23:30.902Z,98593.41
2023-03-19T07:25:35.447Z,98588.78
2023-03-19T07:27:38.938Z,98606.56
2023-03-19T07:29:40.634Z,98605.22
2023-03-19T07:31:44.785Z,98604.38
2023-03-19T07:33:46.260Z,98606.88
2023-03-19T07:35:47.998Z,98617.28
2023-03-19T07:37:53.171Z,98611.56
2023-03-19T07:39:54.770Z,98604.75
2023-03-19T07:41:56.269Z,98609.16
2023-03-19T07:43:58.329Z,98613.25
2023-03-19T07:46:00.875Z,98616.03
2023-03-19T07:48:06.615Z,98610.31
2023-03-19T07:50:09.205Z,98618.53
2023-03-19T07:52:11.193Z,98622.66
2023-03-19T07:54:12.898Z,98615.59
2023-03-19T07:56:19.739Z,98614.81
2023-03-19T07:58:21.511Z,98617.00
2023-03-19T08:00:23.105Z,98611.84
2023-03-19T08:02:24.657Z,98617.63
2023-03-19T08:04:26.108Z,98618.75
2023-03-19T08:06:33.521Z,98622.03
2023-03-19T08:08:35.046Z,98611.66
2023-03-19T08:10:38.481Z,98623.19
2023-03-19T08:12:41.262Z,98622.91
2023-03-19T08:14:42.777Z,98621.81
2023-03-19T08:16:44.325Z,98627.84
2023-03-19T08:18:45.767Z,98623.78
2023-03-19T08:20:53.580Z,98624.88
2023-03-19T08:22:56.490Z,98628.72
2023-03-19T08:24:57.909Z,98627.63
2023-03-19T08:26:59.453Z,98629.84
2023-03-19T08:29:01.651Z,98637.75
2023-03-19T08:31:10.753Z,98646.56
2023-03-19T08:33:12.741Z,98646.28
2023-03-19T08:35:14.323Z,98647.94
2023-03-19T08:37:15.910Z,98646.84
2023-03-19T08:39:17.364Z,98647.38
2023-03-19T08:41:18.819Z,98653.44
2023-03-19T08:43:23.123Z,98653.44
2023-03-19T08:45:28.162Z,98655.06
2023-03-19T08:47:29.707Z,98657.56
2023-03-19T08:49:34.294Z,98654.56
2023-03-19T08:51:36.351Z,98666.06
2023-03-19T08:53:38.682Z,98665.53
2023-03-19T08:55:40.241Z,98666.34
2023-03-19T08:57:41.847Z,98670.47
2023-03-19T08:59:45.170Z,98668.81
2023-03-19T09:01:50.863Z,98668.84
2023-03-19T09:03:52.463Z,98674.91
2023-03-19T09:05:54.061Z,98675.72
2023-03-19T09:07:55.630Z,98683.44
2023-03-19T09:09:57.143Z,98672.25
2023-03-19T09:11:58.733Z,98680.72
2023-03-19T09:14:00.548Z,98684.84
2023-03-19T09:16:02.390Z,98682.94
2023-03-19T09:18:04.052Z,98683.78
2023-03-19T09:20:07.330Z,98684.31
2023-03-19T09:22:08.893Z,98690.34
2023-03-19T09:24:10.907Z,98692.56
2023-03-19T09:26:15.290Z,98691.50
2023-03-19T09:28:17.248Z,98690.69
2023-03-19T09:30:18.842Z,98688.50
2023-03-19T09:32:20.979Z,98688.78
2023-03-19T09:34:22.959Z,98693.19
2023-03-19T09:36:25.284Z,98693.72
2023-03-19T09:38:28.325Z,98697.03
2023-03-19T09:40:33.716Z,98701.97
2023-03-19T09:42:50.754Z,98702.28
2023-03-19T09:44:57.341Z,98703.09
2023-03-19T09:47:19.613Z,98702.56
2023-03-19T09:49:27.500Z,98702.03
2023-03-19T09:51:39.988Z,98704.78
2023-03-19T09:54:00.630Z,98697.41
2023-03-19T09:56:05.559Z,98696.31
2023-03-19T09:58:18.433Z,98697.97
2023-03-19T10:00:32.432Z,98697.75
2023-03-19T10:02:44.030Z,98699.38
2023-03-19T10:05:13.047Z,98696.94
2023-03-19T10:07:34.370Z,98697.78
2023-03-19T10:10:07.752Z,98695.59
2023-03-19T10:12:28.162Z,98689.06
2023-03-19T10:15:01.418Z,98690.97
2023-03-19T10:17:07.114Z,98697.84
2023-03-19T10:19:16.327Z,98695.94
2023-03-19T10:21:46.964Z,98691.25
2023-03-19T10:24:03.301Z,98690.19
2023-03-19T10:26:13.210Z,98695.13
2023-03-19T10:28:20.973Z,98689.09
2023-03-19T10:30:25.399Z,98688.00
2023-03-19T10:32:40.810Z,98679.03
2023-03-19T10:34:51.949Z,98676.00
2023-03-19T10:37:20.569Z,98679.84
2023-03-19T10:39:22.380Z,98682.03
2023-03-19T10:41:38.825Z,98682.34
2023-03-19T10:43:42.064Z,98681.78
2023-03-19T10:45:43.654Z,98683.44
2023-03-19T10:47:45.168Z,98678.47
2023-03-19T10:49:46.701Z,98673.81
2023-03-19T10:51:48.952Z,98677.94
2023-03-19T10:53:53.107Z,98666.69
2023-03-19T10:56:06.229Z,98669.69
2023-03-19T10:58:20.718Z,98673.25
2023-03-19T11:00:28.974Z,98667.47
2023-03-19T11:02:32.267Z,98659.22
2023-03-19T11:04:33.782Z,98661.41
2023-03-19T11:06:37.778Z,98666.03
2023-03-19T11:08:39.678Z,98664.13
2023-03-19T11:10:47.331Z,98654.47
2023-03-19T11:12:57.836Z,98655.63
2023-03-19T11:15:02.919Z,98647.88
2023-03-19T11:17:19.012Z,98657.47
2023-03-19T11:19:23.134Z,98656.06
2023-03-19T11:21:32.854Z,98657.41
2023-03-19T11:23:42.733Z,98650.78
2023-03-19T11:25:53.143Z,98647.72
2023-03-19T11:28:01.026Z,98650.72
2023-03-19T11:30:12.680Z,98647.34
2023-03-19T11:32:33.550Z,98648.97
2023-03-19T11:34:51.373Z,98643.13
2023-03-19T11:37:23.491Z,98634.28
2023-03-19T11:39:30.456Z,98639.50
2023-03-19T11:41:37.869Z,98630.59
2023-03-19T11:43:59.398Z,98625.31
2023-03-19T11:46:20.037Z,98630.75
2023-03-19T11:48:32.126Z,98617.75
2023-03-19T11:50:47.757Z,98617.94
2023-03-19T11:53:17.588Z,98614.53
2023-03-19T11:55:38.215Z,98602.63
2023-03-19T11:57:46.433Z,98601.69
2023-03-19T12:00:03.692Z,98606.25
2023-03-19T12:02:41.914Z,98599.25
2023-03-19T12:05:08.094Z,98596.28
2023-03-19T12:07:31.834Z,98598.59
2023-03-19T12:10:01.465Z,98593.69
2023-03-19T12:12:09.645Z,98586.78
2023-03-19T12:14:56.147Z,98586.47
2023-03-19T12:17:05.992Z,98577.88
2023-03-19T12:19:30.372Z,98581.44
2023-03-19T12:21:49.660Z,98590.50
2023-03-19T12:24:03.000Z,98579.09
2023-03-19T12:26:18.078Z,98579.53
2023-03-19T12:28:28.491Z,98579.41
2023-03-19T12:30:48.112Z,98579.03
2023-03-19T12:33:34.752Z,98578.41
2023-03-19T12:35:39.009Z,98572.72
2023-03-19T12:37:46.636Z,98574.84
2023-03-19T12:40:17.109Z,98569.91
2023-03-19T12:42:21.085Z,98568.25
2023-03-19T12:44:37.476Z,98568.00
2023-03-19T12:47:07.001Z,98559.72
2023-03-19T12:49:36.435Z,98560.63
2023-03-19T12:51:43.894Z,98562.09
2023-03-19T12:53:57.267Z,98560.03
2023-03-19T12:56:06.699Z,98551.28
2023-03-19T12:58:39.359Z,98545.91
2023-03-19T13:00:47.970Z,98550.50
2023-03-19T13:03:13.573Z,98548.41
2023-03-19T13:05:14.939Z,98539.94
2023-03-19T13:07:40.482Z,98545.06
2023-03-19T13:09:53.013Z,98539.56
2023-03-19T13:12:02.842Z,98536.50
2023-03-19T13:14:18.874Z,98540.44
2023-03-19T13:16:33.236Z,98536.88
2023-03-19T13:18:51.406Z,98536.75
2023-03-19T13:21:18.423Z,98541.50
2023-03-19T13:23:27.335Z,98538.56
2023-03-19T13:25:38.372Z,98535.00
2023-03-19T13:27:39.948Z,98542.84
2023-03-19T13:29:55.932Z,98537.97
2023-03-19T13:32:10.180Z,98538.63
2023-03-19T13:34:17.912Z,98539.81
2023-03-19T13:36:20.847Z,98528.56
2023-03-19T13:38:27.891Z,98529.22
2023-03-19T13:40:37.604Z,98521.69
2023-03-19T13:42:43.637Z,98521.69
2023-03-19T13:45:03.138Z,98510.91
2023-03-19T13:47:26.954Z,98514.81
2023-03-19T13:49:32.089Z,98512.19
2023-03-19T13:51:37.657Z,98511.66
2023-03-19T13:53:53.862Z,98506.28
2023-03-19T13:55:59.573Z,98514.09
2023-03-19T13:58:38.131Z,98508.41
2023-03-19T14:00:42.867Z,98506.63
2023-03-19T14:02:47.966Z,98505.97
2023-03-19T14:04:52.865Z,98501.69
2023-03-19T14:07:19.239Z,98503.19
2023-03-19T14:09:48.545Z,98505.97
2023-03-19T14:11:50.248Z,98508.72
2023-03-19T14:13:53.954Z,98505.13
2023-03-19T14:16:05.017Z,98496.63
2023-03-19T14:18:14.713Z,98498.09
2023-03-19T14:20:21.041Z,98494.81
2023-03-19T14:22:38.814Z,98501.38
2023-03-19T14:24:58.513Z,98501.69
2023-03-19T14:27:15.238Z,98497.94
2023-03-19T14:29:16.901Z,98501.56
2023-03-19T14:31:26.671Z,98487.97
2023-03-19T14:33:41.733Z,98492.22
2023-03-19T14:35:46.909Z,98492.22
2023-03-19T14:37:54.237Z,98483.88
2023-03-19T14:40:09.702Z,98483.75
2023-03-19T14:42:20.275Z,98485.53
2023-03-19T14:44:43.373Z,98487.00
2023-03-19T14:47:05.760Z,98485.88
2023-03-19T14:49:27.907Z,98481.66
2023-03-19T14:51:49.287Z,98485.75
2023-03-19T14:53:55.473Z,98497.03
2023-03-19T14:56:11.856Z,98490.03
2023-03-19T14:58:13.553Z,98493.75
2023-03-19T15:00:19.279Z,98490.19
2023-03-19T15:02:40.279Z,98492.28
2023-03-19T15:04:46.534Z,98496.03
2023-03-19T15:07:01.064Z,98499.25
2023-03-19T15:09:04.490Z,98499.13
2023-03-19T15:11:11.685Z,98502.53
2023-03-19T15:13:31.102Z,98498.25
2023-03-19T15:15:57.921Z,98489.63
2023-03-19T15:18:11.953Z,98483.75
2023-03-19T15:20:18.908Z,98486.31
2023-03-19T15:22:34.863Z,98482.09
2023-03-19T15:24:36.453Z,98480.28
2023-03-19T15:26:37.981Z,98480.94
2023-03-19T15:28:49.565Z,98478.63
2023-03-19T15:31:08.574Z,98471.28
2023-03-19T15:35:44.292Z,98468.31
2023-03-19T15:37:51.815Z,98466.78
2023-03-19T15:39:56.301Z,98465.81
2023-03-19T15:42:03.072Z,98462.69
2023-03-19T15:44:08.709Z,98463.66
2023-03-19T15:46:15.297Z,98463.78
2023-03-19T15:48:19.683Z,98457.25
2023-03-19T15:50:25.638Z,98454.94
2023-03-19T15:52:31.902Z,98460.28
2023-03-19T15:54:34.414Z,98458.50
2023-03-19T15:56:36.273Z,98460.56
2023-03-19T15:58:42.712Z,98463.16
2023-03-19T16:00:44.438Z,98463.00
2023-03-19T16:02:50.211Z,98462.78
2023-03-19T16:05:20.592Z,98462.63
2023-03-19T16:07:24.516Z,98462.25
2023-03-19T16:09:33.095Z,98462.06
2023-03-19T16:11:37.532Z,98457.50
2023-03-19T16:13:39.546Z,98456.81
2023-03-19T16:15:46.156Z,98452.19
2023-03-19T16:17:49.353Z,98448.91
2023-03-19T16:19:58.584Z,98451.78
2023-03-19T16:22:01.276Z,98460.22
2023-03-19T16:24:14.909Z,98460.88
2023-03-19T16:26:20.724Z,98466.53
2023-03-19T16:28:23.956Z,98459.69
2023-03-19T16:30:28.065Z,98460.31
2023-03-19T16:32:31.820Z,98473.66
2023-03-19T16:34:47.173Z,98472.13
2023-03-19T16:36:48.909Z,98477.16
2023-03-19T16:39:13.712Z,98482.47
2023-03-19T16:41:16.603Z,98476.78
2023-03-19T16:43:23.513Z,98478.50
2023-03-19T16:45:31.080Z,98483.53
2023-03-19T16:47:32.730Z,98490.84
2023-03-19T16:49:34.254Z,98491.13
2023-03-19T16:51:40.574Z,98493.41
2023-03-19T16:53:42.320Z,98491.56
2023-03-19T16:55:43.998Z,98486.66
2023-03-19T16:57:50.622Z,98491.19
2023-03-19T16:59:52.325Z,98501.72
2023-03-19T17:01:54.033Z,98500.72
2023-03-19T17:03:55.928Z,98504.41
2023-03-19T17:05:57.582Z,98503.91
2023-03-19T17:07:59.121Z,98511.97
2023-03-19T17:10:00.558Z,98515.66
2023-03-19T17:12:03.948Z,98509.91
2023-03-19T17:14:07.648Z,98520.47
2023-03-19T17:16:09.310Z,98520.56
2023-03-19T17:18:20.735Z,98520.69
2023-03-19T17:20:27.962Z,98522.09
2023-03-19T17:22:29.613Z,98517.81
2023-03-19T17:24:33.689Z,98521.50
2023-03-19T17:26:35.187Z,98518.50
2023-03-19T17:28:37.180Z,98530.47
2023-03-19T17:30:39.313Z,98531.41
2023-03-19T17:32:45.793Z,98528.75
2023-03-19T17:34:47.322Z,98533.25
2023-03-19T17:36:56.303Z,98532.53
2023-03-19T17:38:58.229Z,98534.56
2023-03-19T17:40:59.852Z,98531.06
2023-03-19T17:43:01.582Z,98534.72
2023-03-19T17:45:04.714Z,98538.69
2023-03-19T17:47:06.342Z,98547.06
2023-03-19T17:49:15.735Z,98552.44
2023-03-19T17:51:22.234Z,98566.34
2023-03-19T17:53:23.739Z,98574.47
2023-03-19T17:55:28.283Z,98575.38
2023-03-19T17:57:29.947Z,98579.84
2023-03-19T17:59:31.773Z,98580.72
2023-03-19T18:01:33.405Z,98586.63
2023-03-19T18:03:36.241Z,98598.56
2023-03-19T18:05:37.668Z,98598.66
2023-03-19T18:07:39.309Z,98588.47
2023-03-19T18:09:40.938Z,98593.78
2023-03-19T18:11:42.734Z,98598.25
2023-03-19T18:13:44.252Z,98601.38
2023-03-19T18:15:46.860Z,98610.53
2023-03-19T18:17:51.913Z,98644.81
2023-03-19T18:19:54.332Z,98639.88
2023-03-19T18:21:56.117Z,98657.81
2023-03-19T18:23:57.875Z,98665.56
2023-03-19T18:25:59.644Z,98660.63
2023-03-19T18:28:03.509Z,98667.56
2023-03-19T18:30:05.768Z,98668.41
2023-03-19T18:32:16.902Z,98677.56
2023-03-19T18:34:18.519Z,98687.81
2023-03-19T18:36:24.510Z,98689.53
2023-03-19T18:38:27.892Z,98683.78
2023-03-19T18:40:32.829Z,98687.66
2023-03-19T18:42:34.343Z,98678.63
2023-03-19T18:44:35.888Z,98687.97
2023-03-19T18:46:39.193Z,98684.69
2023-03-19T18:48:40.912Z,98689.69
2023-03-19T18:50:42.634Z,98685.84
2023-03-19T18:52:49.480Z,98677.38
2023-03-19T18:54:51.086Z,98670.78
2023-03-19T18:56:54.752Z,98675.53
2023-03-19T18:58:58.523Z,98674.75
2023-03-19T19:01:04.545Z,98677.03
2023-03-19T19:03:07.321Z,98689.16
2023-03-19T19:05:15.468Z,98695.00
2023-03-19T19:07:17.328Z,98686.78
2023-03-19T19:09:18.828Z,98691.19
2023-03-19T19:11:21.820Z,98695.91
2023-03-19T19:13:26.161Z,98703.94
2023-03-19T19:15:34.355Z,98699.84
2023-03-19T19:17:39.123Z,98701.22
2023-03-19T19:19:42.917Z,98700.44
2023-03-19T19:21:45.214Z,98698.78
2023-03-19T19:23:46.975Z,98699.09
2023-03-19T19:25:55.213Z,98696.88
2023-03-19T19:28:03.017Z,98697.47
2023-03-19T19:30:05.769Z,98699.16
2023-03-19T19:32:19.515Z,98696.13
2023-03-19T19:34:21.856Z,98703.84
2023-03-19T19:36:24.639Z,98703.59
2023-03-19T19:38:26.529Z,98700.88
2023-03-19T19:40:31.179Z,98699.25
2023-03-19T19:42:32.727Z,98703.38
2023-03-19T19:44:36.538Z,98704.25
2023-03-19T19:46:38.114Z,98713.59
2023-03-19T19:48:39.755Z,98701.50
2023-03-19T19:50:41.564Z,98706.44
2023-03-19T19:52:43.550Z,98712.25
2023-03-19T19:54:49.020Z,98712.81
2023-03-19T19:56:54.017Z,98708.69
2023-03-19T19:58:58.973Z,98706.50
2023-03-19T20:01:04.332Z,98703.50
2023-03-19T20:03:06.219Z,98714.78
2023-03-19T20:05:15.928Z,98715.91
2023-03-19T20:07:17.808Z,98716.75
2023-03-19T20:09:36.064Z,98712.63
2023-03-19T20:11:41.176Z,98718.69
2023-03-19T20:13:54.454Z,98721.16
2023-03-19T20:15:58.251Z,98715.41
2023-03-19T20:18:02.186Z,98719.81
2023-03-19T20:20:04.259Z,98721.47
2023-03-19T20:22:05.677Z,98728.34
2023-03-19T20:24:07.186Z,98732.19
2023-03-19T20:26:25.320Z,98723.69
2023-03-19T20:28:34.012Z,98725.31
2023-03-19T20:30:38.658Z,98731.38
2023-03-19T20:32:40.510Z,98732.50
2023-03-19T20:34:42.015Z,98730.00
2023-03-19T20:36:43.654Z,98730.31
2023-03-19T20:38:45.459Z,98740.75
2023-03-19T20:40:58.776Z,98736.63
2023-03-19T20:43:05.114Z,98734.97
2023-03-19T20:45:07.793Z,98725.38
2023-03-19T20:47:19.988Z,98730.31
2023-03-19T20:49:21.856Z,98735.28
2023-03-19T20:51:26.219Z,98740.47
2023-03-19T20:53:28.334Z,98738.81
2023-03-19T20:55:32.026Z,98737.19
2023-03-19T20:57:33.604Z,98741.31
2023-03-19T20:59:35.452Z,98736.91
2023-03-19T21:01:39.314Z,98739.66
2023-03-19T21:03:41.681Z,98750.91
2023-03-19T21:05:43.769Z,98748.44
2023-03-19T21:07:50.278Z,98748.44
2023-03-19T21:09:52.060Z,98752.56
2023-03-19T21:11:53.777Z,98749.81
2023-03-19T21:13:55.687Z,98753.69
2023-03-19T21:15:57.853Z,98763.28
2023-03-19T21:17:59.593Z,98757.25
2023-03-19T21:20:02.102Z,98750.94
2023-03-19T21:22:05.664Z,98750.94
2023-03-19T21:24:14.234Z,98752.31
2023-03-19T21:26:19.524Z,98761.94
2023-03-19T21:28:34.218Z,98756.69
2023-03-19T21:30:43.423Z,98755.88
2023-03-19T21:32:45.733Z,98757.25
2023-03-19T21:34:49.098Z,98758.34
2023-03-19T21:36:50.852Z,98761.38
2023-03-19T21:38:52.620Z,98763.31
2023-03-19T21:40:57.918Z,98766.31
2023-03-19T21:43:02.956Z,98771.00
2023-03-19T21:45:04.789Z,98760.28
2023-03-19T21:47:06.482Z,98769.34
2023-03-19T21:49:12.154Z,98765.22
2023-03-19T21:51:14.716Z,98764.38
2023-03-19T21:53:19.797Z,98768.50
2023-03-19T21:55:21.331Z,98766.06
2023-03-19T21:57:25.195Z,98757.81
2023-03-19T21:59:35.746Z,98765.50
2023-03-19T22:01:37.249Z,98756.69
2023-03-19T22:03:38.774Z,98777.88
2023-03-19T22:05:41.586Z,98766.31
2023-03-19T22:07:43.080Z,98766.59
2023-03-19T22:09:47.290Z,98766.88
2023-03-19T22:11:48.794Z,98767.13
2023-03-19T22:13:50.503Z,98764.38
2023-03-19T22:15:54.960Z,98760.00
2023-03-19T22:17:58.265Z,98773.16
2023-03-19T22:19:59.765Z,98770.41
2023-03-19T22:22:01.896Z,98766.88
2023-03-19T22:24:03.559Z,98765.50
2023-03-19T22:26:28.718Z,98768.25
2023-03-19T22:28:32.537Z,98768.50
2023-03-19T22:30:37.052Z,98775.09
2023-03-19T22:32:38.502Z,98773.44
2023-03-19T22:34:40.256Z,98784.72
2023-03-19T22:36:41.842Z,98787.44
2023-03-19T22:38:45.341Z,98786.88
2023-03-19T22:40:50.140Z,98782.50
2023-03-19T22:42:51.576Z,98788.00
2023-03-19T22:44:54.580Z,98783.59
2023-03-19T22:46:58.884Z,98777.28
2023-03-19T22:49:01.569Z,98782.22
2023-03-19T22:51:04.240Z,98781.38
2023-03-19T22:53:21.212Z,98785.25
2023-03-19T22:55:25.754Z,98781.13
2023-03-19T22:57:27.302Z,98781.13
2023-03-19T22:59:31.945Z,98783.03
2023-03-19T23:01:41.438Z,98773.16
2023-03-19T23:03:43.221Z,98785.50
2023-03-19T23:05:48.931Z,98778.38
2023-03-19T23:07:55.126Z,98784.41
2023-03-19T23:09:56.778Z,98786.31
2023-03-19T23:12:00.080Z,98782.19
2023-03-19T23:14:02.006Z,98779.72
2023-03-19T23:16:03.854Z,98784.66
2023-03-19T23:18:17.351Z,98783.28
2023-03-19T23:20:21.445Z,98784.91
2023-03-19T23:22:22.958Z,98786.28
2023-03-19T23:24:25.294Z,98790.13
2023-03-19T23:26:29.495Z,98790.66
2023-03-19T23:28:33.852Z,98793.94
2023-03-19T23:30:35.436Z,98794.22
2023-03-19T23:32:46.152Z,98783.78
2023-03-19T23:34:59.224Z,98784.03
2023-03-19T23:37:03.367Z,98788.94
2023-03-19T23:39:09.467Z,98782.91
2023-03-19T23:41:26.073Z,98784.56
2023-03-19T23:43:28.931Z,98793.84
2023-03-19T23:45:34.325Z,98783.41
2023-03-19T23:47:36.326Z,98786.44
2023-03-19T23:49:37.971Z,98786.97
2023-03-19T23:51:42.081Z,98783.41
2023-03-19T23:53:44.539Z,98795.44
2023-03-19T23:55:54.272Z,98787.78
2023-03-19T23:57:56.436Z,98788.88
2023-03-19T23:59:58.420Z,98787.22
